Allouez, Michigan
Current Conditions -  °F | °C
As of 10:53 AM on Friday 21 Nov 2014 (Local Time) from KCMX Reporting Station
Broken Clouds Broken Clouds  
Wind Chill:   Ceiling: 11000
Heat Index: 12°   Visibility: 10mi
Dew Point:   Wind: 7mph
Humidity: 67%   Direction: 210°SSW
Pressure: 30.14"   Gusts: NA
Location:  47.29°N, 88.41°W
Report Text: KCMX 211553Z AUTO 21006KT 10SM BKN110 M11/M16 A3014 RMK AO2 SLP230 T11111161
Loading
Personal Weather Stations






























Interactive Weather Map New forecast layout! Learn more

10-Day Weather Forecast

Advertisements
Track Severe Weather on mobile